Time;durP1;ratioP1;P1;durP2;ratioP2;P2;SDS_P1;SDS_P2;PMS_P1;PMS_P2;Temp;Humidity;BMP_temperature;BMP_pressure;BME280_temperature;BME280_humidity;BME280_pressure;Samples;Min_cycle;Max_cycle;Signal;HPM_P1;HPM_P2
2022/04/11 00:01:46;;;;;;;19.35;11.88;;;;;;;;;;5019866;28;20120;-68
2022/04/11 00:04:12;;;;;;;17.50;11.77;;;;;;;;;;5019415;28;20029;-70
2022/04/11 00:06:37;;;;;;;16.08;11.27;;;;;;;;;;5021062;28;20037;-67
2022/04/11 00:09:03;;;;;;;16.63;10.07;;;;;;;;;;5019728;28;20030;-69
2022/04/11 00:11:28;;;;;;;16.15;11.27;;;;;;;;;;5018966;28;20029;-69
2022/04/11 00:13:53;;;;;;;15.73;12.00;;;;;;;;;;5020033;28;20501;-69
2022/04/11 00:16:19;;;;;;;18.98;12.55;;;;;;;;;;5021156;28;20029;-69
2022/04/11 00:18:45;;;;;;;21.13;13.02;;;;;;;;;;5023515;28;20037;-69
2022/04/11 00:21:11;;;;;;;20.95;13.55;;;;;;;;;;5023292;28;20040;-69
2022/04/11 00:23:36;;;;;;;17.60;11.98;;;;;;;;;;5022260;28;20037;-70
2022/04/11 00:26:01;;;;;;;17.52;12.10;;;;;;;;;;5023073;28;20684;-69
2022/04/11 00:28:27;;;;;;;17.00;12.23;;;;;;;;;;5023834;28;20039;-69
2022/04/11 00:30:52;;;;;;;17.77;11.13;;;;;;;;;;5023552;28;20037;-70
2022/04/11 00:33:18;;;;;;;15.20;10.95;;;;;;;;;;5021103;28;20971;-69
2022/04/11 00:35:43;;;;;;;16.33;11.70;;;;;;;;;;5021821;28;20156;-70
2022/04/11 00:38:08;;;;;;;25.42;14.60;;;;;;;;;;5023501;28;20624;-69
2022/04/11 00:40:34;;;;;;;19.05;12.60;;;;;;;;;;5025651;28;20083;-70
2022/04/11 00:42:59;;;;;;;15.52;11.48;;;;;;;;;;5025240;28;20037;-68
2022/04/11 00:45:26;;;;;;;19.73;12.93;;;;;;;;;;5006008;28;20057;-69
2022/04/11 00:47:51;;;;;;;21.13;12.60;;;;;;;;;;5025158;28;20069;-69
2022/04/11 00:50:17;;;;;;;19.35;13.15;;;;;;;;;;5025486;28;20029;-70
2022/04/11 00:52:48;;;;;;;16.70;11.40;;;;;;;;;;5024982;28;20037;-69
2022/04/11 00:55:15;;;;;;;16.23;11.95;;;;;;;;;;5022881;28;20041;-69
2022/04/11 00:57:42;;;;;;;18.40;12.43;;;;;;;;;;5026590;28;20125;-69
2022/04/11 01:00:09;;;;;;;20.77;12.02;;;;;;;;;;5026001;28;20575;-69
2022/04/11 01:02:35;;;;;;;16.90;11.45;;;;;;;;;;5024710;28;20025;-69
2022/04/11 01:05:01;;;;;;;17.08;11.05;;;;;;;;;;5016054;28;20107;-69
2022/04/11 01:07:26;;;;;;;18.60;10.85;;;;;;;;;;5021764;28;20116;-69
2022/04/11 01:09:52;;;;;;;14.77;10.68;;;;;;;;;;5023479;28;20462;-69
2022/04/11 01:12:18;;;;;;;17.92;11.45;;;;;;;;;;5022540;28;20037;-69
2022/04/11 01:14:43;;;;;;;14.48;10.82;;;;;;;;;;5021598;28;20029;-70
2022/04/11 01:17:10;;;;;;;16.20;10.60;;;;;;;;;;5021139;28;20029;-69
2022/04/11 01:19:35;;;;;;;18.45;11.90;;;;;;;;;;5023365;28;20072;-70
2022/04/11 01:22:01;;;;;;;18.52;12.30;;;;;;;;;;5021610;28;20501;-69
2022/04/11 01:24:31;;;;;;;21.80;14.05;;;;;;;;;;5021664;28;20060;-70
2022/04/11 01:26:58;;;;;;;18.88;12.23;;;;;;;;;;5023196;28;20036;-69
2022/04/11 01:29:24;;;;;;;21.33;13.32;;;;;;;;;;5020210;28;20502;-69
2022/04/11 01:31:50;;;;;;;18.65;12.18;;;;;;;;;;5021972;28;20083;-70
2022/04/11 01:34:15;;;;;;;17.92;12.05;;;;;;;;;;5022778;28;20370;-69
2022/04/11 01:36:41;;;;;;;18.80;12.07;;;;;;;;;;5021179;28;20034;-70
2022/04/11 01:39:09;;;;;;;16.77;11.90;;;;;;;;;;5020420;28;20029;-70
2022/04/11 01:41:35;;;;;;;16.98;11.20;;;;;;;;;;5021332;28;20114;-69
2022/04/11 01:44:01;;;;;;;19.70;12.65;;;;;;;;;;5021370;28;20037;-70
2022/04/11 01:46:27;;;;;;;21.08;12.40;;;;;;;;;;5020726;28;20057;-69
2022/04/11 01:48:57;;;;;;;17.65;12.00;;;;;;;;;;5022004;28;20147;-69
2022/04/11 01:51:22;;;;;;;20.60;12.43;;;;;;;;;;5019930;28;21058;-70
2022/04/11 01:53:48;;;;;;;16.92;11.73;;;;;;;;;;5010585;28;20045;-69
2022/04/11 01:56:14;;;;;;;18.08;11.48;;;;;;;;;;5020198;28;20562;-70
2022/04/11 01:58:39;;;;;;;17.38;11.48;;;;;;;;;;5021240;28;20120;-69
2022/04/11 02:01:05;;;;;;;13.85;10.80;;;;;;;;;;5019979;28;20076;-69
2022/04/11 02:03:33;;;;;;;16.48;10.88;;;;;;;;;;5022381;28;20524;-70
2022/04/11 02:05:58;;;;;;;16.45;10.20;;;;;;;;;;5019854;28;20029;-70
2022/04/11 02:08:24;;;;;;;16.80;11.07;;;;;;;;;;5021046;28;20041;-69
2022/04/11 02:10:54;;;;;;;15.55;10.15;;;;;;;;;;5020232;28;20026;-69
2022/04/11 02:13:19;;;;;;;14.82;10.40;;;;;;;;;;5019156;28;20103;-69
2022/04/11 02:15:45;;;;;;;17.60;12.13;;;;;;;;;;5019108;28;21096;-69
2022/04/11 02:18:10;;;;;;;15.40;11.07;;;;;;;;;;5020552;28;20033;-69
2022/04/11 02:20:35;;;;;;;15.60;11.13;;;;;;;;;;5021582;28;20037;-69
2022/04/11 02:23:01;;;;;;;24.67;13.05;;;;;;;;;;5018733;28;20037;-68
2022/04/11 02:25:30;;;;;;;19.33;12.55;;;;;;;;;;5019580;28;20025;-68
2022/04/11 02:27:57;;;;;;;21.52;12.15;;;;;;;;;;5020475;28;20041;-68
2022/04/11 02:30:24;;;;;;;19.33;11.55;;;;;;;;;;5019751;28;20037;-68
2022/04/11 02:32:51;;;;;;;22.75;13.65;;;;;;;;;;5019970;28;20033;-68
2022/04/11 02:35:17;;;;;;;24.67;13.52;;;;;;;;;;5018332;28;20119;-68
2022/04/11 02:37:44;;;;;;;20.45;13.32;;;;;;;;;;5020426;28;20029;-68
2022/04/11 02:40:12;;;;;;;31.23;17.13;;;;;;;;;;5018561;28;20035;-68
2022/04/11 02:42:44;;;;;;;25.98;17.45;;;;;;;;;;5014552;28;20033;-68
2022/04/11 02:45:14;;;;;;;28.25;17.02;;;;;;;;;;5032439;28;20022;-68
2022/04/11 02:47:40;;;;;;;31.85;17.17;;;;;;;;;;5019916;28;20065;-68
2022/04/11 02:50:07;;;;;;;32.63;18.50;;;;;;;;;;5019675;28;20068;-68
2022/04/11 02:52:48;;;;;;;35.80;19.60;;;;;;;;;;5019536;28;20068;-69
2022/04/11 02:55:14;;;;;;;29.60;17.27;;;;;;;;;;5018066;28;20033;-68
2022/04/11 02:57:40;;;;;;;26.40;16.45;;;;;;;;;;5021032;28;20226;-68
2022/04/11 03:00:12;;;;;;;24.63;16.20;;;;;;;;;;5020087;28;20041;-68
2022/04/11 03:02:41;;;;;;;22.80;14.80;;;;;;;;;;5020061;28;20033;-68
2022/04/11 03:05:08;;;;;;;23.80;14.77;;;;;;;;;;5015434;28;20022;-68
2022/04/11 03:07:35;;;;;;;20.80;13.43;;;;;;;;;;5017316;28;20034;-68
2022/04/11 03:10:00;;;;;;;21.35;13.23;;;;;;;;;;5018983;28;20037;-68
2022/04/11 03:12:27;;;;;;;21.15;14.15;;;;;;;;;;5019787;28;20036;-68
2022/04/11 03:14:53;;;;;;;23.98;16.02;;;;;;;;;;5015707;28;20429;-68
2022/04/11 03:17:19;;;;;;;24.83;15.07;;;;;;;;;;5017430;28;20631;-68
2022/04/11 03:19:45;;;;;;;26.05;14.52;;;;;;;;;;5018784;28;20037;-68
2022/04/11 03:22:11;;;;;;;20.92;12.80;;;;;;;;;;5002391;28;20028;-67
2022/04/11 03:24:41;;;;;;;16.38;11.82;;;;;;;;;;5017045;28;20035;-68
2022/04/11 03:27:06;;;;;;;22.23;12.93;;;;;;;;;;5020908;28;20116;-69
2022/04/11 03:29:35;;;;;;;16.20;11.52;;;;;;;;;;5017553;28;20053;-69
2022/04/11 03:32:00;;;;;;;23.48;16.48;;;;;;;;;;5019093;28;21039;-69
2022/04/11 03:34:29;;;;;;;25.08;16.27;;;;;;;;;;5018886;28;20033;-69
2022/04/11 03:36:54;;;;;;;20.80;14.43;;;;;;;;;;5020511;28;20041;-69
2022/04/11 03:39:21;;;;;;;19.33;12.40;;;;;;;;;;5018450;28;20029;-69
2022/04/11 03:41:49;;;;;;;20.45;15.15;;;;;;;;;;5006257;28;20048;-68
2022/04/11 03:44:22;;;;;;;21.92;13.82;;;;;;;;;;5019014;28;20033;-68
2022/04/11 03:46:52;;;;;;;19.92;13.18;;;;;;;;;;5018285;28;20064;-67
2022/04/11 03:49:22;;;;;;;23.65;13.70;;;;;;;;;;5019127;28;20033;-68
2022/04/11 03:51:48;;;;;;;18.38;12.43;;;;;;;;;;5019978;28;20490;-68
2022/04/11 03:54:13;;;;;;;23.08;12.82;;;;;;;;;;5024309;28;20029;-68
2022/04/11 03:56:39;;;;;;;26.80;15.60;;;;;;;;;;5024188;28;20112;-68
2022/04/11 03:59:06;;;;;;;24.77;15.10;;;;;;;;;;5006502;28;20037;-67
2022/04/11 04:01:32;;;;;;;20.52;13.25;;;;;;;;;;5021607;28;20033;-68
2022/04/11 04:04:00;;;;;;;18.10;12.65;;;;;;;;;;5022276;28;20872;-68
2022/04/11 04:06:26;;;;;;;16.20;11.75;;;;;;;;;;5021960;28;20034;-69
2022/04/11 04:08:51;;;;;;;17.92;12.40;;;;;;;;;;5023407;28;20385;-69
2022/04/11 04:11:24;;;;;;;20.75;13.05;;;;;;;;;;5022913;28;20536;-69
2022/04/11 04:14:07;;;;;;;22.70;14.45;;;;;;;;;;5020218;28;20363;-69
2022/04/11 04:16:37;;;;;;;19.08;12.95;;;;;;;;;;5021604;28;20041;-69
2022/04/11 04:19:05;;;;;;;19.63;12.45;;;;;;;;;;5022045;28;20053;-69
2022/04/11 04:21:31;;;;;;;19.80;12.65;;;;;;;;;;5022894;28;20163;-69
2022/04/11 04:23:56;;;;;;;18.80;11.52;;;;;;;;;;5020438;28;20516;-68
2022/04/11 04:26:25;;;;;;;17.42;11.02;;;;;;;;;;5021809;28;20025;-69
2022/04/11 04:28:51;;;;;;;18.98;11.38;;;;;;;;;;5021571;28;20394;-68
2022/04/11 04:31:19;;;;;;;17.23;11.00;;;;;;;;;;5007680;28;20042;-70
2022/04/11 04:33:45;;;;;;;15.93;10.77;;;;;;;;;;5022477;28;20033;-72
2022/04/11 04:36:12;;;;;;;26.48;18.15;;;;;;;;;;5019132;28;20107;-69
2022/04/11 04:38:38;;;;;;;17.88;11.88;;;;;;;;;;5019944;28;20057;-70
2022/04/11 04:41:08;;;;;;;20.20;12.88;;;;;;;;;;5020654;28;20111;-73
2022/04/11 04:43:33;;;;;;;17.35;11.88;;;;;;;;;;5021354;28;20041;-72
2022/04/11 04:45:59;;;;;;;14.13;9.80;;;;;;;;;;5016020;28;20034;-72
2022/04/11 04:48:33;;;;;;;14.52;10.70;;;;;;;;;;5018148;28;20029;-71
2022/04/11 04:50:59;;;;;;;14.10;10.48;;;;;;;;;;5020490;28;20033;-71
2022/04/11 04:53:26;;;;;;;20.02;13.35;;;;;;;;;;5017291;28;20743;-71
2022/04/11 04:55:55;;;;;;;16.85;11.30;;;;;;;;;;5020554;28;20033;-72
2022/04/11 04:58:20;;;;;;;19.10;12.32;;;;;;;;;;5019066;28;20647;-71
2022/04/11 05:00:48;;;;;;;17.98;12.70;;;;;;;;;;5018178;28;20505;-70
2022/04/11 05:03:17;;;;;;;18.75;12.65;;;;;;;;;;5020312;28;20509;-71
2022/04/11 05:05:43;;;;;;;17.10;12.00;;;;;;;;;;5020105;28;20758;-72
2022/04/11 05:08:08;;;;;;;19.02;12.35;;;;;;;;;;5021119;28;21429;-72
2022/04/11 05:10:37;;;;;;;17.58;12.52;;;;;;;;;;5022258;28;20390;-72
2022/04/11 05:13:02;;;;;;;15.85;11.30;;;;;;;;;;5022948;28;20771;-72
2022/04/11 05:15:29;;;;;;;14.40;10.52;;;;;;;;;;5022899;28;20026;-72
2022/04/11 05:18:02;;;;;;;16.48;10.77;;;;;;;;;;5023582;28;20040;-74
2022/04/11 05:20:29;;;;;;;13.63;9.93;;;;;;;;;;5021362;28;20045;-72
2022/04/11 05:22:55;;;;;;;10.52;7.50;;;;;;;;;;5021705;28;20041;-73
2022/04/11 05:25:23;;;;;;;8.98;5.95;;;;;;;;;;5021961;28;20500;-73
2022/04/11 05:27:51;;;;;;;6.13;5.07;;;;;;;;;;5022083;28;20037;-73
2022/04/11 05:30:17;;;;;;;5.60;4.97;;;;;;;;;;5020593;28;20072;-71
2022/04/11 05:32:43;;;;;;;7.20;5.55;;;;;;;;;;5019904;28;20061;-72
2022/04/11 05:35:09;;;;;;;5.82;4.57;;;;;;;;;;5018138;28;20128;-71
2022/04/11 05:37:36;;;;;;;6.55;4.88;;;;;;;;;;5020700;28;20478;-70
2022/04/11 05:40:03;;;;;;;6.25;5.00;;;;;;;;;;5019011;28;20029;-72
2022/04/11 05:42:29;;;;;;;7.35;5.07;;;;;;;;;;5019113;28;20029;-72
2022/04/11 05:44:55;;;;;;;5.18;4.65;;;;;;;;;;5019246;28;20401;-71
2022/04/11 05:47:20;;;;;;;6.25;4.72;;;;;;;;;;5016078;28;20034;-71
2022/04/11 05:49:52;;;;;;;7.53;4.75;;;;;;;;;;5020084;28;20068;-70
2022/04/11 05:52:19;;;;;;;6.93;5.43;;;;;;;;;;5018036;28;20128;-71
2022/04/11 05:54:45;;;;;;;7.07;5.75;;;;;;;;;;5018700;28;20368;-69
2022/04/11 05:57:11;;;;;;;10.52;7.75;;;;;;;;;;5020562;28;20057;-71
2022/04/11 05:59:37;;;;;;;8.38;6.85;;;;;;;;;;5020402;28;20502;-71
2022/04/11 06:02:03;;;;;;;8.98;6.97;;;;;;;;;;5002642;28;20516;-71
2022/04/11 06:04:29;;;;;;;8.23;6.10;;;;;;;;;;5016915;28;20040;-71
2022/04/11 06:06:54;;;;;;;6.03;5.20;;;;;;;;;;5020772;28;20033;-71
2022/04/11 06:09:20;;;;;;;7.35;5.22;;;;;;;;;;5020608;28;20505;-72
2022/04/11 06:11:45;;;;;;;8.55;5.47;;;;;;;;;;5015796;28;20026;-71
2022/04/11 06:14:12;;;;;;;6.78;4.93;;;;;;;;;;5000026;28;20122;-71
2022/04/11 06:16:38;;;;;;;7.75;5.57;;;;;;;;;;5020014;28;20117;-71
2022/04/11 06:19:03;;;;;;;9.05;5.90;;;;;;;;;;5020115;28;20040;-73
2022/04/11 06:21:29;;;;;;;8.85;6.28;;;;;;;;;;5020157;28;20040;-70
2022/04/11 06:23:55;;;;;;;8.85;6.60;;;;;;;;;;5017879;28;20080;-70
2022/04/11 06:26:23;;;;;;;7.55;6.32;;;;;;;;;;5014559;28;20364;-74
2022/04/11 06:28:48;;;;;;;8.05;5.78;;;;;;;;;;5016944;28;20036;-70
2022/04/11 06:31:14;;;;;;;8.23;6.22;;;;;;;;;;5016940;28;20736;-69
2022/04/11 06:33:42;;;;;;;8.45;6.45;;;;;;;;;;5017702;28;20033;-72
2022/04/11 06:36:08;;;;;;;7.32;6.03;;;;;;;;;;5014965;28;20037;-71
2022/04/11 06:38:34;;;;;;;8.40;6.10;;;;;;;;;;5017609;28;20107;-70
2022/04/11 06:41:00;;;;;;;6.30;5.45;;;;;;;;;;5017642;28;20037;-70
2022/04/11 06:43:26;;;;;;;6.40;5.25;;;;;;;;;;5007851;28;20039;-71
2022/04/11 06:46:08;;;;;;;6.65;5.05;;;;;;;;;;5012026;28;20026;-71
2022/04/11 06:48:33;;;;;;;8.02;5.20;;;;;;;;;;5009981;28;20044;-71
2022/04/11 06:50:59;;;;;;;6.32;4.95;;;;;;;;;;5008673;28;20147;-70
2022/04/11 06:53:25;;;;;;;6.03;4.60;;;;;;;;;;5013410;28;20119;-71
2022/04/11 06:55:50;;;;;;;8.80;5.05;;;;;;;;;;5011569;28;20048;-71
2022/04/11 06:58:17;;;;;;;7.07;4.03;;;;;;;;;;5012414;28;20098;-70
2022/04/11 07:00:46;;;;;;;4.40;4.00;;;;;;;;;;5013851;28;20033;-70
2022/04/11 07:03:12;;;;;;;6.65;3.55;;;;;;;;;;5015591;28;20025;-70
2022/04/11 07:05:38;;;;;;;5.43;3.35;;;;;;;;;;5014047;28;20482;-70
2022/04/11 07:08:05;;;;;;;6.35;3.30;;;;;;;;;;5016152;28;20045;-70
2022/04/11 07:10:31;;;;;;;3.80;3.40;;;;;;;;;;5015416;28;20037;-69
2022/04/11 07:12:57;;;;;;;4.57;3.47;;;;;;;;;;5015455;28;20041;-70
2022/04/11 07:15:23;;;;;;;6.93;4.28;;;;;;;;;;5015440;28;20042;-69
2022/04/11 07:17:49;;;;;;;4.50;4.05;;;;;;;;;;5016239;28;20041;-71
2022/04/11 07:20:14;;;;;;;4.50;3.58;;;;;;;;;;5016036;28;20037;-69
2022/04/11 07:22:40;;;;;;;4.63;3.72;;;;;;;;;;5020501;28;20651;-71
2022/04/11 07:25:06;;;;;;;4.00;3.70;;;;;;;;;;5019117;28;20116;-69
2022/04/11 07:27:31;;;;;;;5.25;3.72;;;;;;;;;;5021909;28;20041;-69
2022/04/11 07:29:57;;;;;;;3.80;3.33;;;;;;;;;;5019812;28;20041;-70
2022/04/11 07:32:22;;;;;;;3.35;3.05;;;;;;;;;;5016683;28;20038;-71
2022/04/11 07:34:48;;;;;;;3.08;2.58;;;;;;;;;;5022680;28;20041;-71
2022/04/11 07:37:13;;;;;;;3.05;2.50;;;;;;;;;;5022976;28;20049;-70
2022/04/11 07:39:39;;;;;;;2.88;2.53;;;;;;;;;;5023035;28;20576;-70
2022/04/11 07:42:04;;;;;;;3.85;2.72;;;;;;;;;;5020289;28;20045;-69
2022/04/11 07:44:30;;;;;;;3.22;2.40;;;;;;;;;;5020048;28;20094;-69
2022/04/11 07:46:55;;;;;;;2.33;2.15;;;;;;;;;;5021397;28;20056;-70
2022/04/11 07:49:21;;;;;;;3.78;2.10;;;;;;;;;;5022934;28;20033;-69
2022/04/11 07:51:46;;;;;;;3.05;2.50;;;;;;;;;;5022421;28;20091;-69
2022/04/11 07:54:12;;;;;;;4.18;3.03;;;;;;;;;;5020859;28;21185;-69
2022/04/11 07:56:37;;;;;;;2.85;2.25;;;;;;;;;;5021140;28;20047;-69
2022/04/11 07:59:03;;;;;;;2.42;2.22;;;;;;;;;;5022685;28;20877;-69
2022/04/11 08:01:28;;;;;;;2.22;2.00;;;;;;;;;;5022122;28;20123;-69
2022/04/11 08:03:54;;;;;;;2.63;1.92;;;;;;;;;;5020118;28;20045;-69
2022/04/11 08:06:20;;;;;;;2.28;1.90;;;;;;;;;;5021634;28;20139;-71
2022/04/11 08:08:46;;;;;;;2.83;2.30;;;;;;;;;;5019576;28;20036;-70
2022/04/11 08:11:13;;;;;;;2.78;2.08;;;;;;;;;;5020727;28;20041;-70
2022/04/11 08:13:39;;;;;;;2.50;2.28;;;;;;;;;;5020980;28;20933;-69
2022/04/11 08:16:05;;;;;;;5.30;2.65;;;;;;;;;;5019162;28;20546;-70
2022/04/11 08:18:31;;;;;;;4.20;2.30;;;;;;;;;;5021415;28;20034;-69
2022/04/11 08:20:56;;;;;;;3.75;2.70;;;;;;;;;;5022329;28;20045;-72
2022/04/11 08:23:22;;;;;;;5.05;2.35;;;;;;;;;;5021697;28;20033;-71
2022/04/11 08:25:48;;;;;;;2.78;2.20;;;;;;;;;;5019748;28;20086;-70
2022/04/11 08:28:13;;;;;;;3.65;2.72;;;;;;;;;;5022220;28;20478;-69
2022/04/11 08:30:39;;;;;;;3.53;2.58;;;;;;;;;;5022639;28;20033;-69
2022/04/11 08:33:04;;;;;;;3.88;2.47;;;;;;;;;;5021165;28;20037;-70
2022/04/11 08:35:30;;;;;;;2.60;2.40;;;;;;;;;;5021460;28;20052;-69
2022/04/11 08:37:55;;;;;;;2.85;2.47;;;;;;;;;;5020942;28;20037;-70
2022/04/11 08:40:21;;;;;;;3.10;2.55;;;;;;;;;;5022176;28;20052;-69
2022/04/11 08:42:50;;;;;;;3.80;2.38;;;;;;;;;;5023593;28;20037;-70
2022/04/11 08:45:19;;;;;;;2.55;2.13;;;;;;;;;;5022561;28;20034;-69
2022/04/11 08:47:47;;;;;;;3.65;2.80;;;;;;;;;;5022364;28;20060;-68
2022/04/11 08:50:13;;;;;;;4.63;2.60;;;;;;;;;;5021781;28;20971;-68
2022/04/11 08:52:39;;;;;;;2.78;2.47;;;;;;;;;;5023074;28;20030;-68
2022/04/11 08:55:06;;;;;;;3.35;3.05;;;;;;;;;;5022622;28;20045;-70
2022/04/11 08:57:31;;;;;;;5.00;2.58;;;;;;;;;;5026512;28;20425;-69
2022/04/11 09:00:06;;;;;;;3.00;2.70;;;;;;;;;;5019752;28;20512;-69
2022/04/11 09:02:34;;;;;;;3.30;2.63;;;;;;;;;;5023265;28;20478;-70
2022/04/11 09:05:00;;;;;;;6.65;2.70;;;;;;;;;;5020605;28;20025;-70
2022/04/11 09:07:26;;;;;;;2.78;2.55;;;;;;;;;;5019082;28;20037;-70
2022/04/11 09:09:57;;;;;;;3.15;2.42;;;;;;;;;;5019618;28;20037;-70
2022/04/11 09:12:23;;;;;;;3.30;2.40;;;;;;;;;;5020940;28;20064;-69
2022/04/11 09:14:55;;;;;;;2.42;2.20;;;;;;;;;;5019315;28;20064;-69
2022/04/11 09:17:26;;;;;;;4.65;2.15;;;;;;;;;;5014222;28;20041;-68
2022/04/11 09:20:10;;;;;;;2.35;2.03;;;;;;;;;;5027711;28;20037;-70
2022/04/11 09:22:36;;;;;;;5.65;2.10;;;;;;;;;;5022586;28;20048;-68
2022/04/11 09:25:10;;;;;;;2.13;1.92;;;;;;;;;;5019980;28;20040;-70
2022/04/11 09:27:36;;;;;;;3.47;2.00;;;;;;;;;;5022875;28;20037;-71
2022/04/11 09:30:17;;;;;;;2.05;1.73;;;;;;;;;;5024997;28;20147;-71
2022/04/11 09:32:56;;;;;;;2.90;1.90;;;;;;;;;;5016125;28;20040;-72
2022/04/11 09:35:47;;;;;;;2.83;2.15;;;;;;;;;;5020224;28;20029;-72
2022/04/11 09:38:22;;;;;;;3.33;2.00;;;;;;;;;;5011441;28;20045;-69
2022/04/11 09:40:53;;;;;;;3.00;2.58;;;;;;;;;;5016610;28;20169;-72
2022/04/11 09:43:27;;;;;;;2.20;1.92;;;;;;;;;;5016114;28;20781;-69
2022/04/11 09:45:53;;;;;;;2.08;1.70;;;;;;;;;;5016525;28;20048;-70
2022/04/11 09:48:28;;;;;;;2.42;1.50;;;;;;;;;;5015454;28;20140;-71
2022/04/11 09:50:54;;;;;;;2.10;1.90;;;;;;;;;;5019012;28;20037;-71
2022/04/11 09:53:22;;;;;;;1.63;1.50;;;;;;;;;;5017668;28;20036;-70
2022/04/11 09:55:50;;;;;;;2.92;1.70;;;;;;;;;;5017406;28;20038;-69
2022/04/11 09:58:21;;;;;;;1.85;1.75;;;;;;;;;;5018466;28;20041;-69
2022/04/11 10:00:50;;;;;;;2.13;1.60;;;;;;;;;;5019083;28;20099;-69
2022/04/11 10:03:19;;;;;;;1.75;1.50;;;;;;;;;;5017821;28;20056;-71
2022/04/11 10:05:45;;;;;;;2.70;1.80;;;;;;;;;;5016048;28;20033;-70
2022/04/11 10:08:12;;;;;;;3.13;1.80;;;;;;;;;;5017869;28;20040;-70
2022/04/11 10:10:41;;;;;;;1.70;1.60;;;;;;;;;;5018290;28;20041;-71
2022/04/11 10:13:16;;;;;;;2.40;2.20;;;;;;;;;;5016853;28;20040;-70
2022/04/11 10:15:45;;;;;;;2.55;1.85;;;;;;;;;;5015449;28;20045;-70
2022/04/11 10:18:14;;;;;;;1.88;1.38;;;;;;;;;;5020900;28;20037;-71
2022/04/11 10:20:46;;;;;;;2.95;1.75;;;;;;;;;;5017786;28;20033;-70
2022/04/11 10:23:32;;;;;;;3.15;1.60;;;;;;;;;;5019061;28;20041;-71
2022/04/11 10:25:59;;;;;;;2.03;1.80;;;;;;;;;;5016048;28;20041;-71
2022/04/11 10:28:29;;;;;;;4.10;2.00;;;;;;;;;;5016735;28;20482;-69
2022/04/11 10:31:11;;;;;;;2.70;1.90;;;;;;;;;;5017143;28;20045;-69
2022/04/11 10:33:45;;;;;;;2.15;1.70;;;;;;;;;;5018015;28;20246;-68
2022/04/11 10:36:35;;;;;;;1.83;1.70;;;;;;;;;;5017533;28;20033;-69
2022/04/11 10:39:12;;;;;;;2.92;1.65;;;;;;;;;;5007918;28;20068;-69
2022/04/11 10:41:54;;;;;;;1.88;1.75;;;;;;;;;;5015168;28;20144;-69
2022/04/11 10:44:34;;;;;;;1.58;1.40;;;;;;;;;;5019399;28;20049;-71
2022/04/11 10:47:08;;;;;;;1.60;1.50;;;;;;;;;;5016598;28;20481;-70
2022/04/11 10:49:55;;;;;;;1.90;1.52;;;;;;;;;;5018521;28;20119;-70
2022/04/11 10:52:33;;;;;;;1.70;1.60;;;;;;;;;;5018298;28;20095;-71
2022/04/11 10:55:14;;;;;;;2.53;1.60;;;;;;;;;;5018076;28;20064;-70
2022/04/11 10:57:44;;;;;;;3.47;1.67;;;;;;;;;;5017998;28;20035;-71
2022/04/11 11:00:13;;;;;;;2.67;1.80;;;;;;;;;;5016113;28;21043;-71
2022/04/11 11:02:57;;;;;;;3.08;1.75;;;;;;;;;;5018931;28;20222;-74
2022/04/11 11:05:40;;;;;;;4.85;1.70;;;;;;;;;;5018288;28;20025;-71
2022/04/11 11:08:13;;;;;;;1.60;1.50;;;;;;;;;;5024740;28;20418;-72
2022/04/11 11:10:55;;;;;;;6.05;2.10;;;;;;;;;;5017011;28;20071;-72
2022/04/11 11:13:39;;;;;;;1.50;1.40;;;;;;;;;;5016724;28;20045;-71
2022/04/11 11:16:06;;;;;;;3.55;1.52;;;;;;;;;;5022761;28;20029;-71
2022/04/11 11:18:47;;;;;;;2.65;1.80;;;;;;;;;;5017222;28;20032;-71
2022/04/11 11:21:19;;;;;;;1.67;1.30;;;;;;;;;;5015851;28;20033;-72
2022/04/11 11:26:45;;;;;;;2.63;1.65;;;;;;;;;;5014199;28;20041;-69
2022/04/11 11:29:19;;;;;;;;;;;;;;;;;;5014679;28;20037;-69
2022/04/11 11:31:47;;;;;;;3.03;1.55;;;;;;;;;;5014832;28;19923;-69
2022/04/11 11:34:16;;;;;;;1.73;1.48;;;;;;;;;;5014041;28;20029;-71
2022/04/11 11:36:42;;;;;;;1.63;1.52;;;;;;;;;;5021503;28;20112;-70
2022/04/11 11:39:18;;;;;;;2.33;1.70;;;;;;;;;;5018220;28;20041;-70
2022/04/11 11:41:50;;;;;;;2.20;1.50;;;;;;;;;;5023411;28;20499;-70
2022/04/11 11:44:16;;;;;;;2.13;1.85;;;;;;;;;;5020376;28;20037;-70
2022/04/11 11:46:59;;;;;;;1.65;1.48;;;;;;;;;;5020537;28;20017;-70
2022/04/11 11:49:37;;;;;;;2.97;1.60;;;;;;;;;;5021355;28;20029;-71
2022/04/11 11:52:02;;;;;;;1.73;1.63;;;;;;;;;;5021462;28;20042;-70
2022/04/11 11:54:33;;;;;;;2.72;1.63;;;;;;;;;;5019785;28;20045;-70
2022/04/11 11:56:58;;;;;;;3.05;1.45;;;;;;;;;;5021372;28;20059;-70
2022/04/11 11:59:24;;;;;;;3.08;1.50;;;;;;;;;;5022721;28;20504;-70
2022/04/11 12:04:35;;;;;;;1.60;1.50;;;;;;;;;;5023737;28;20110;-70
2022/04/11 12:07:01;;;;;;;1.40;1.30;;;;;;;;;;5016925;28;20701;-70
2022/04/11 12:09:37;;;;;;;1.73;1.48;;;;;;;;;;5020023;28;20099;-70
2022/04/11 12:12:08;;;;;;;1.55;1.42;;;;;;;;;;5019708;28;20111;-70
2022/04/11 12:15:06;;;;;;;1.52;1.42;;;;;;;;;;5023649;28;20037;-70
2022/04/11 12:17:34;;;;;;;1.50;1.40;;;;;;;;;;5021512;28;20041;-70
2022/04/11 12:20:29;;;;;;;1.60;1.48;;;;;;;;;;5023480;28;20095;-70
2022/04/11 12:23:03;;;;;;;1.30;1.20;;;;;;;;;;5022455;28;20053;-70
2022/04/11 12:25:35;;;;;;;1.30;1.20;;;;;;;;;;5022494;28;20029;-71
2022/04/11 12:28:24;;;;;;;1.27;1.20;;;;;;;;;;5022118;28;20041;-70
2022/04/11 12:31:02;;;;;;;1.60;1.48;;;;;;;;;;5023294;28;20072;-70
2022/04/11 12:33:44;;;;;;;1.73;1.35;;;;;;;;;;5023571;28;20037;-71
2022/04/11 12:36:12;;;;;;;;;;;;;;;;;;5023470;28;20049;-71
2022/04/11 12:38:56;;;;;;;3.90;1.42;;;;;;;;;;5022273;28;20011;-71
2022/04/11 12:41:29;;;;;;;1.67;1.38;;;;;;;;;;5023532;28;20037;-71
2022/04/11 12:44:08;;;;;;;2.50;1.27;;;;;;;;;;5023457;28;20474;-71
2022/04/11 12:46:39;;;;;;;1.88;1.50;;;;;;;;;;5023209;28;20029;-71
2022/04/11 12:49:06;;;;;;;2.30;1.40;;;;;;;;;;5022902;28;20120;-71
2022/04/11 12:51:32;;;;;;;1.45;1.35;;;;;;;;;;5022789;28;20033;-72
2022/04/11 12:54:05;;;;;;;3.72;1.40;;;;;;;;;;5023308;28;20459;-69
2022/04/11 12:56:38;;;;;;;3.28;1.33;;;;;;;;;;5023667;28;20037;-70
2022/04/11 12:59:04;;;;;;;1.75;1.27;;;;;;;;;;5023515;28;20029;-69
2022/04/11 13:01:50;;;;;;;2.58;1.40;;;;;;;;;;5021101;28;20029;-69
2022/04/11 13:04:16;;;;;;;2.17;1.50;;;;;;;;;;5022603;28;20041;-69
2022/04/11 13:06:41;;;;;;;2.10;1.30;;;;;;;;;;5022665;28;20032;-70
2022/04/11 13:09:07;;;;;;;1.52;1.42;;;;;;;;;;5023224;28;20040;-69
2022/04/11 13:11:40;;;;;;;1.67;1.20;;;;;;;;;;5020378;28;20033;-69
2022/04/11 13:14:05;;;;;;;2.33;1.15;;;;;;;;;;5022843;28;20125;-68
2022/04/11 13:19:15;;;;;;;1.30;1.20;;;;;;;;;;5021048;28;20121;-69
2022/04/11 13:21:40;;;;;;;1.52;1.10;;;;;;;;;;5023442;28;20533;-68
2022/04/11 13:24:06;;;;;;;2.38;1.40;;;;;;;;;;5019302;28;20033;-69
2022/04/11 13:26:31;;;;;;;1.75;1.27;;;;;;;;;;5022748;28;20040;-68
2022/04/11 13:28:57;;;;;;;1.35;1.20;;;;;;;;;;5022937;28;20297;-71
2022/04/11 13:31:22;;;;;;;3.08;1.40;;;;;;;;;;5022189;28;20118;-71
2022/04/11 13:33:48;;;;;;;1.27;1.25;;;;;;;;;;5020746;28;20041;-68
2022/04/11 13:36:13;;;;;;;3.42;1.40;;;;;;;;;;5022052;28;20042;-69
2022/04/11 13:38:38;;;;;;;1.67;1.50;;;;;;;;;;5022774;28;20033;-68
2022/04/11 13:41:04;;;;;;;1.45;1.27;;;;;;;;;;5022035;28;20040;-69
2022/04/11 13:43:29;;;;;;;1.63;1.40;;;;;;;;;;5023127;28;20775;-69
2022/04/11 13:45:55;;;;;;;1.90;1.50;;;;;;;;;;5018663;28;20627;-69
2022/04/11 13:48:20;;;;;;;1.98;1.35;;;;;;;;;;5022586;28;20041;-69
2022/04/11 13:50:46;;;;;;;1.42;1.33;;;;;;;;;;5022452;28;20052;-69
2022/04/11 13:53:11;;;;;;;1.15;1.10;;;;;;;;;;5022253;28;20037;-70
2022/04/11 13:55:37;;;;;;;1.40;1.30;;;;;;;;;;5020324;28;20049;-70
2022/04/11 13:58:02;;;;;;;3.28;1.00;;;;;;;;;;5021768;28;20037;-71
2022/04/11 14:00:27;;;;;;;2.88;1.30;;;;;;;;;;5020757;28;20549;-70
2022/04/11 14:02:53;;;;;;;2.85;1.17;;;;;;;;;;5022339;28;20091;-69
2022/04/11 14:05:19;;;;;;;2.40;1.25;;;;;;;;;;5022397;28;20033;-70
2022/04/11 14:07:44;;;;;;;1.15;1.00;;;;;;;;;;5020356;28;20082;-70
2022/04/11 14:10:13;;;;;;;2.78;1.17;;;;;;;;;;5022021;28;20025;-69
2022/04/11 14:12:40;;;;;;;2.47;1.40;;;;;;;;;;5022283;28;20041;-69
2022/04/11 14:15:06;;;;;;;2.22;1.40;;;;;;;;;;5021768;28;20717;-69
2022/04/11 14:17:32;;;;;;;1.15;1.00;;;;;;;;;;5020174;28;20051;-68
2022/04/11 14:19:57;;;;;;;1.00;0.95;;;;;;;;;;5021750;28;20053;-69
2022/04/11 14:22:22;;;;;;;1.98;1.23;;;;;;;;;;5021890;28;20037;-68
2022/04/11 14:24:48;;;;;;;3.88;1.20;;;;;;;;;;5021663;28;20085;-69
2022/04/11 14:27:13;;;;;;;1.63;1.15;;;;;;;;;;5021962;28;20041;-69
2022/04/11 14:29:39;;;;;;;1.35;1.10;;;;;;;;;;5020557;28;20025;-72
2022/04/11 14:32:04;;;;;;;2.72;1.33;;;;;;;;;;5022193;28;20037;-70
2022/04/11 14:34:30;;;;;;;2.13;1.42;;;;;;;;;;5021972;28;20363;-68
2022/04/11 14:36:55;;;;;;;2.13;1.35;;;;;;;;;;5021260;28;20046;-71
2022/04/11 14:39:20;;;;;;;2.33;1.40;;;;;;;;;;5019513;28;20091;-68
2022/04/11 14:41:46;;;;;;;3.03;1.60;;;;;;;;;;5020592;28;20037;-69
2022/04/11 14:44:12;;;;;;;1.35;1.00;;;;;;;;;;5022621;28;20120;-69
2022/04/11 14:46:37;;;;;;;1.00;0.80;;;;;;;;;;5021737;28;20061;-70
2022/04/11 14:49:03;;;;;;;2.10;1.50;;;;;;;;;;5022223;28;20037;-70